createdAt,value
2019-01-26T00:02:25.326Z,4.68
2019-01-26T00:08:31.399Z,4.73
2019-01-26T00:14:37.336Z,4.76
2019-01-26T00:20:43.268Z,4.80
2019-01-26T00:26:49.219Z,4.83
2019-01-26T00:32:55.135Z,4.85
2019-01-26T00:39:00.854Z,4.90
2019-01-26T00:45:07.697Z,4.95
2019-01-26T00:51:17.238Z,5.01
2019-01-26T00:57:21.102Z,5.09
2019-01-26T01:03:27.030Z,5.19
2019-01-26T01:09:33.033Z,5.25
2019-01-26T01:15:38.857Z,5.30
2019-01-26T01:21:45.184Z,5.36
2019-01-26T01:27:51.073Z,5.38
2019-01-26T01:33:56.874Z,5.43
2019-01-26T01:40:02.841Z,5.47
2019-01-26T01:46:08.720Z,5.51
2019-01-26T01:52:14.748Z,5.52
2019-01-26T01:58:20.788Z,5.56
2019-01-26T02:04:26.526Z,5.60
2019-01-26T02:10:32.286Z,5.59
2019-01-26T02:16:38.383Z,5.64
2019-01-26T02:22:44.260Z,5.68
2019-01-26T02:28:50.490Z,5.70
2019-01-26T02:34:56.384Z,5.67
2019-01-26T02:41:02.448Z,5.71
2019-01-26T02:47:08.295Z,5.70
2019-01-26T02:53:14.276Z,5.71
2019-01-26T02:59:20.265Z,5.76
2019-01-26T03:05:26.558Z,5.77
2019-01-26T03:11:32.322Z,5.80
2019-01-26T03:17:38.231Z,5.83
2019-01-26T03:23:43.963Z,5.88
2019-01-26T03:29:49.675Z,5.93
2019-01-26T03:35:55.358Z,5.94
2019-01-26T03:42:01.326Z,5.98
2019-01-26T03:48:07.625Z,6.01
2019-01-26T03:54:13.847Z,6.05
2019-01-26T04:00:26.178Z,6.08
2019-01-26T04:06:34.456Z,6.13
2019-01-26T04:12:40.453Z,6.18
2019-01-26T04:18:46.328Z,6.18
2019-01-26T04:24:52.767Z,6.23
2019-01-26T04:30:58.541Z,6.25
2019-01-26T04:37:04.318Z,6.30
2019-01-26T04:43:10.014Z,6.30
2019-01-26T04:49:15.727Z,6.35
2019-01-26T04:55:22.196Z,6.36
2019-01-26T05:01:28.089Z,6.39
2019-01-26T05:07:33.936Z,6.43
2019-01-26T05:13:39.764Z,6.48
2019-01-26T05:19:45.635Z,6.51
2019-01-26T05:25:51.371Z,6.56
2019-01-26T05:31:57.330Z,6.59
2019-01-26T05:38:05.959Z,6.56
2019-01-26T05:44:11.090Z,6.60
2019-01-26T05:50:28.525Z,6.62
2019-01-26T05:56:35.760Z,6.63
2019-01-26T06:02:41.665Z,6.66
2019-01-26T06:08:49.529Z,6.69
2019-01-26T06:14:55.338Z,6.72
2019-01-26T06:21:05.092Z,6.77
2019-01-26T06:27:12.673Z,6.82
2019-01-26T06:33:18.414Z,6.85
2019-01-26T06:39:24.373Z,6.91
2019-01-26T06:45:32.851Z,6.93
2019-01-26T06:51:40.833Z,6.96
2019-01-26T06:57:49.334Z,7.00
2019-01-26T07:03:55.267Z,7.04
2019-01-26T07:10:01.390Z,7.05
2019-01-26T07:16:07.509Z,7.10
2019-01-26T07:22:14.664Z,7.11
2019-01-26T07:28:27.120Z,7.10
2019-01-26T07:34:32.963Z,7.06
2019-01-26T07:40:43.221Z,7.07
2019-01-26T07:46:48.994Z,7.04
2019-01-26T07:52:58.113Z,7.03
2019-01-26T07:59:04.273Z,7.03
2019-01-26T08:05:11.975Z,7.04
2019-01-26T08:11:18.081Z,7.06
2019-01-26T08:17:24.121Z,7.04
2019-01-26T08:23:30.222Z,7.08
2019-01-26T08:29:36.011Z,7.08
2019-01-26T08:35:42.031Z,7.09
2019-01-26T08:41:47.819Z,7.08
2019-01-26T08:47:53.681Z,7.04
2019-01-26T08:53:59.543Z,7.04
2019-01-26T09:00:06.662Z,6.99
2019-01-26T09:06:16.874Z,7.01
2019-01-26T09:12:22.835Z,7.00
2019-01-26T09:18:28.701Z,7.01
2019-01-26T09:24:34.442Z,7.04
2019-01-26T09:30:40.435Z,7.05
2019-01-26T09:36:46.289Z,7.08
2019-01-26T09:42:52.502Z,7.08
2019-01-26T09:48:58.365Z,7.07
2019-01-26T09:55:05.002Z,7.17
2019-01-26T10:01:10.972Z,7.27
2019-01-26T10:07:16.697Z,7.31
2019-01-26T10:13:22.558Z,7.33
2019-01-26T10:19:28.389Z,7.40
2019-01-26T10:25:34.212Z,7.46
2019-01-26T10:31:40.052Z,7.48
2019-01-26T10:37:46.069Z,7.49
2019-01-26T10:43:53.133Z,7.51
2019-01-26T10:49:58.876Z,7.58
2019-01-26T10:56:04.739Z,7.63
2019-01-26T11:02:11.034Z,7.68
2019-01-26T11:08:16.905Z,7.75
2019-01-26T11:14:23.009Z,7.79
2019-01-26T11:20:28.819Z,7.80
2019-01-26T11:26:34.999Z,7.82
2019-01-26T11:32:42.235Z,7.85
2019-01-26T11:38:48.433Z,7.94
2019-01-26T11:45:21.931Z,8.10
2019-01-26T11:51:45.403Z,8.20
2019-01-26T11:57:51.824Z,8.25
2019-01-26T12:04:11.339Z,8.28
2019-01-26T12:10:17.053Z,8.37
2019-01-26T12:16:26.967Z,8.44
2019-01-26T12:22:30.697Z,8.51
2019-01-26T12:28:39.738Z,8.55
2019-01-26T12:34:45.510Z,8.69
2019-01-26T12:40:51.299Z,8.75
2019-01-26T12:46:57.148Z,8.83
2019-01-26T12:53:02.954Z,8.85
2019-01-26T12:59:08.804Z,8.84
2019-01-26T13:05:15.213Z,8.72
2019-01-26T13:11:28.056Z,8.75
2019-01-26T13:17:36.038Z,8.83
2019-01-26T13:23:42.960Z,8.88
2019-01-26T13:29:48.759Z,8.89
2019-01-26T13:35:54.701Z,8.89
2019-01-26T13:42:00.671Z,8.85
2019-01-26T13:48:06.877Z,8.75
2019-01-26T13:54:13.842Z,8.65
2019-01-26T14:00:26.326Z,8.64
2019-01-26T14:06:32.076Z,8.73
2019-01-26T14:12:37.859Z,8.77
2019-01-26T14:18:44.976Z,8.79
2019-01-26T14:24:53.924Z,8.74
2019-01-26T14:31:06.210Z,8.68
2019-01-26T14:37:13.395Z,8.64
2019-01-26T14:43:19.275Z,8.61
2019-01-26T14:49:25.036Z,8.58
2019-01-26T14:55:33.508Z,8.61
2019-01-26T15:01:38.394Z,8.59
2019-01-26T15:07:46.473Z,8.54
2019-01-26T15:13:52.216Z,8.47
2019-01-26T15:19:57.997Z,8.40
2019-01-26T15:26:03.870Z,8.42
2019-01-26T15:32:12.697Z,8.37
2019-01-26T15:38:21.031Z,8.36
2019-01-26T15:44:26.838Z,8.34
2019-01-26T15:50:32.618Z,8.32
2019-01-26T15:56:38.357Z,8.30
2019-01-26T16:02:45.793Z,8.25
2019-01-26T16:08:52.251Z,8.25
2019-01-26T16:14:58.144Z,8.25
2019-01-26T16:21:05.835Z,8.24
2019-01-26T16:27:14.118Z,8.23
2019-01-26T16:33:21.599Z,8.19
2019-01-26T16:39:27.376Z,8.17
2019-01-26T16:45:40.872Z,8.12
2019-01-26T16:51:48.391Z,8.07
2019-01-26T16:57:57.317Z,8.04
2019-01-26T17:04:03.462Z,7.99
2019-01-26T17:10:12.322Z,7.94
2019-01-26T17:16:19.787Z,7.90
2019-01-26T17:22:31.368Z,7.92
2019-01-26T17:28:37.264Z,7.89
2019-01-26T17:34:42.993Z,7.84
2019-01-26T17:40:54.214Z,7.85
2019-01-26T17:46:56.363Z,7.87
2019-01-26T17:53:02.136Z,7.84
2019-01-26T17:59:12.497Z,7.80
2019-01-26T18:05:18.370Z,7.85
2019-01-26T18:11:24.637Z,7.83
2019-01-26T18:17:30.501Z,7.86
2019-01-26T18:23:36.416Z,7.86
2019-01-26T18:29:42.290Z,7.85
2019-01-26T18:35:48.012Z,7.74
2019-01-26T18:41:53.805Z,7.72
2019-01-26T18:47:59.672Z,7.71
2019-01-26T18:54:05.660Z,7.71
2019-01-26T19:00:26.664Z,7.75
2019-01-26T19:06:34.979Z,7.76
2019-01-26T19:12:41.142Z,7.80
2019-01-26T19:18:49.235Z,7.77
2019-01-26T19:24:55.105Z,7.79
2019-01-26T19:31:00.920Z,7.77
2019-01-26T19:37:09.381Z,7.81
2019-01-26T19:43:14.440Z,7.87
2019-01-26T19:49:20.270Z,7.87
2019-01-26T19:55:26.460Z,7.91
2019-01-26T20:01:32.831Z,7.92
2019-01-26T20:07:38.745Z,7.96
2019-01-26T20:13:44.516Z,7.98
2019-01-26T20:19:50.219Z,7.99
2019-01-26T20:25:56.034Z,7.99
2019-01-26T20:32:01.910Z,8.02
2019-01-26T20:38:07.677Z,8.03
2019-01-26T20:44:13.422Z,8.01
2019-01-26T20:50:19.223Z,8.01
2019-01-26T20:56:25.082Z,7.97
2019-01-26T21:02:31.000Z,7.94
2019-01-26T21:08:36.780Z,7.93
2019-01-26T21:14:42.745Z,7.95
2019-01-26T21:20:54.776Z,7.94
2019-01-26T21:27:00.714Z,7.91
2019-01-26T21:33:07.652Z,7.88
2019-01-26T21:39:16.635Z,7.84
2019-01-26T21:45:24.545Z,7.79
2019-01-26T21:51:38.924Z,7.83
2019-01-26T21:57:41.128Z,7.82
2019-01-26T22:03:50.040Z,7.86
2019-01-26T22:09:55.892Z,7.88
2019-01-26T22:16:02.211Z,7.89
2019-01-26T22:22:08.121Z,7.88
2019-01-26T22:28:16.565Z,7.86
2019-01-26T22:34:25.445Z,7.87
2019-01-26T22:40:39.490Z,7.87
2019-01-26T22:46:45.460Z,7.84
2019-01-26T22:52:51.313Z,7.86
2019-01-26T22:58:57.165Z,7.86
2019-01-26T23:05:44.805Z,7.83
2019-01-26T23:12:22.276Z,7.81
2019-01-26T23:18:56.880Z,7.73
2019-01-26T23:25:33.112Z,7.72
2019-01-26T23:31:39.009Z,7.71
2019-01-26T23:37:45.037Z,7.64
2019-01-26T23:43:50.953Z,7.59
2019-01-26T23:49:56.675Z,7.49
2019-01-26T23:56:02.791Z,7.46
